sensor_id;sensor_type;location;lat;lon;timestamp;P1;durP1;ratioP1;P2;durP2;ratioP2
48613;SDS011;34408;51.426;5.444;2023-02-17T00:00:52;7.82;;;6.40;;
48613;SDS011;34408;51.426;5.444;2023-02-17T00:03:20;9.23;;;6.35;;
48613;SDS011;34408;51.426;5.444;2023-02-17T00:05:50;10.85;;;6.68;;
48613;SDS011;34408;51.426;5.444;2023-02-17T00:08:18;8.48;;;6.00;;
48613;SDS011;34408;51.426;5.444;2023-02-17T00:10:56;7.45;;;5.72;;
48613;SDS011;34408;51.426;5.444;2023-02-17T00:13:24;7.47;;;5.68;;
48613;SDS011;34408;51.426;5.444;2023-02-17T00:15:53;9.50;;;6.43;;
48613;SDS011;34408;51.426;5.444;2023-02-17T00:18:21;8.20;;;5.80;;
48613;SDS011;34408;51.426;5.444;2023-02-17T00:20:50;7.75;;;5.70;;
48613;SDS011;34408;51.426;5.444;2023-02-17T00:23:18;7.22;;;5.47;;
48613;SDS011;34408;51.426;5.444;2023-02-17T00:25:46;8.18;;;5.78;;
48613;SDS011;34408;51.426;5.444;2023-02-17T00:28:13;7.95;;;5.45;;
48613;SDS011;34408;51.426;5.444;2023-02-17T00:30:41;8.05;;;5.95;;
48613;SDS011;34408;51.426;5.444;2023-02-17T00:33:09;8.52;;;5.63;;
48613;SDS011;34408;51.426;5.444;2023-02-17T00:35:38;7.88;;;6.25;;
48613;SDS011;34408;51.426;5.444;2023-02-17T00:38:08;7.88;;;5.13;;
48613;SDS011;34408;51.426;5.444;2023-02-17T00:40:36;8.40;;;5.10;;
48613;SDS011;34408;51.426;5.444;2023-02-17T00:43:04;7.65;;;5.55;;
48613;SDS011;34408;51.426;5.444;2023-02-17T00:45:32;5.75;;;5.05;;
48613;SDS011;34408;51.426;5.444;2023-02-17T00:48:00;6.45;;;5.28;;
48613;SDS011;34408;51.426;5.444;2023-02-17T00:50:28;7.30;;;4.80;;
48613;SDS011;34408;51.426;5.444;2023-02-17T00:52:55;5.35;;;4.63;;
48613;SDS011;34408;51.426;5.444;2023-02-17T00:55:24;7.32;;;4.85;;
48613;SDS011;34408;51.426;5.444;2023-02-17T00:57:52;7.05;;;4.97;;
48613;SDS011;34408;51.426;5.444;2023-02-17T01:00:21;6.35;;;5.15;;
48613;SDS011;34408;51.426;5.444;2023-02-17T01:02:48;6.10;;;4.45;;
48613;SDS011;34408;51.426;5.444;2023-02-17T01:05:16;7.28;;;5.68;;
48613;SDS011;34408;51.426;5.444;2023-02-17T01:07:44;6.35;;;4.55;;
48613;SDS011;34408;51.426;5.444;2023-02-17T01:10:12;5.63;;;3.92;;
48613;SDS011;34408;51.426;5.444;2023-02-17T01:12:41;5.63;;;4.40;;
48613;SDS011;34408;51.426;5.444;2023-02-17T01:15:09;7.15;;;4.32;;
48613;SDS011;34408;51.426;5.444;2023-02-17T01:17:37;4.75;;;3.67;;
48613;SDS011;34408;51.426;5.444;2023-02-17T01:20:05;5.78;;;4.10;;
48613;SDS011;34408;51.426;5.444;2023-02-17T01:22:34;5.50;;;4.20;;
48613;SDS011;34408;51.426;5.444;2023-02-17T01:25:02;4.10;;;3.20;;
48613;SDS011;34408;51.426;5.444;2023-02-17T01:27:30;4.93;;;3.40;;
48613;SDS011;34408;51.426;5.444;2023-02-17T01:29:59;3.95;;;3.15;;
48613;SDS011;34408;51.426;5.444;2023-02-17T01:32:27;4.57;;;3.08;;
48613;SDS011;34408;51.426;5.444;2023-02-17T01:34:54;4.35;;;3.28;;
48613;SDS011;34408;51.426;5.444;2023-02-17T01:37:22;4.80;;;2.90;;
48613;SDS011;34408;51.426;5.444;2023-02-17T01:39:50;3.33;;;2.38;;
48613;SDS011;34408;51.426;5.444;2023-02-17T01:42:18;4.25;;;2.85;;
48613;SDS011;34408;51.426;5.444;2023-02-17T01:47:55;4.33;;;2.70;;
48613;SDS011;34408;51.426;5.444;2023-02-17T01:50:27;4.82;;;2.83;;
48613;SDS011;34408;51.426;5.444;2023-02-17T01:52:58;4.90;;;2.70;;
48613;SDS011;34408;51.426;5.444;2023-02-17T01:55:27;3.63;;;2.70;;
48613;SDS011;34408;51.426;5.444;2023-02-17T01:57:56;3.75;;;2.60;;
48613;SDS011;34408;51.426;5.444;2023-02-17T02:00:28;4.07;;;2.88;;
48613;SDS011;34408;51.426;5.444;2023-02-17T02:02:58;3.92;;;2.70;;
48613;SDS011;34408;51.426;5.444;2023-02-17T02:05:28;4.53;;;2.60;;
48613;SDS011;34408;51.426;5.444;2023-02-17T02:07:56;4.32;;;2.72;;
48613;SDS011;34408;51.426;5.444;2023-02-17T02:10:24;4.88;;;2.88;;
48613;SDS011;34408;51.426;5.444;2023-02-17T02:12:52;4.25;;;2.85;;
48613;SDS011;34408;51.426;5.444;2023-02-17T02:15:20;3.40;;;2.40;;
48613;SDS011;34408;51.426;5.444;2023-02-17T02:18:01;3.00;;;2.50;;
48613;SDS011;34408;51.426;5.444;2023-02-17T02:20:43;4.70;;;3.22;;
48613;SDS011;34408;51.426;5.444;2023-02-17T02:23:40;3.80;;;2.63;;
48613;SDS011;34408;51.426;5.444;2023-02-17T02:26:34;3.65;;;2.75;;
48613;SDS011;34408;51.426;5.444;2023-02-17T02:35:15;3.10;;;2.45;;
48613;SDS011;34408;51.426;5.444;2023-02-17T02:37:48;4.82;;;2.80;;
48613;SDS011;34408;51.426;5.444;2023-02-17T02:40:20;4.78;;;2.85;;
48613;SDS011;34408;51.426;5.444;2023-02-17T02:42:52;3.92;;;2.50;;
48613;SDS011;34408;51.426;5.444;2023-02-17T02:45:22;2.72;;;2.40;;
48613;SDS011;34408;51.426;5.444;2023-02-17T02:47:51;3.33;;;2.45;;
48613;SDS011;34408;51.426;5.444;2023-02-17T02:50:22;5.05;;;2.67;;
48613;SDS011;34408;51.426;5.444;2023-02-17T02:53:07;4.25;;;2.90;;
48613;SDS011;34408;51.426;5.444;2023-02-17T02:55:51;3.53;;;2.60;;
48613;SDS011;34408;51.426;5.444;2023-02-17T02:58:25;5.80;;;3.72;;
48613;SDS011;34408;51.426;5.444;2023-02-17T03:01:05;4.43;;;2.80;;
48613;SDS011;34408;51.426;5.444;2023-02-17T03:03:41;5.45;;;2.72;;
48613;SDS011;34408;51.426;5.444;2023-02-17T03:06:16;4.20;;;3.20;;
48613;SDS011;34408;51.426;5.444;2023-02-17T03:08:52;3.13;;;2.53;;
48613;SDS011;34408;51.426;5.444;2023-02-17T03:11:24;4.93;;;2.78;;
48613;SDS011;34408;51.426;5.444;2023-02-17T03:13:59;3.75;;;2.70;;
48613;SDS011;34408;51.426;5.444;2023-02-17T03:16:27;4.43;;;3.17;;
48613;SDS011;34408;51.426;5.444;2023-02-17T03:18:57;6.70;;;3.05;;
48613;SDS011;34408;51.426;5.444;2023-02-17T03:21:25;4.70;;;2.88;;
48613;SDS011;34408;51.426;5.444;2023-02-17T03:23:59;3.88;;;2.80;;
48613;SDS011;34408;51.426;5.444;2023-02-17T03:26:27;4.25;;;3.08;;
48613;SDS011;34408;51.426;5.444;2023-02-17T03:28:55;5.00;;;2.83;;
48613;SDS011;34408;51.426;5.444;2023-02-17T03:31:22;3.60;;;2.80;;
48613;SDS011;34408;51.426;5.444;2023-02-17T03:33:50;3.97;;;2.75;;
48613;SDS011;34408;51.426;5.444;2023-02-17T03:36:19;4.50;;;3.20;;
48613;SDS011;34408;51.426;5.444;2023-02-17T03:38:47;3.17;;;2.30;;
48613;SDS011;34408;51.426;5.444;2023-02-17T03:41:15;4.57;;;2.53;;
48613;SDS011;34408;51.426;5.444;2023-02-17T03:43:43;3.80;;;2.78;;
48613;SDS011;34408;51.426;5.444;2023-02-17T03:46:10;3.20;;;2.58;;
48613;SDS011;34408;51.426;5.444;2023-02-17T03:48:39;3.80;;;2.92;;
48613;SDS011;34408;51.426;5.444;2023-02-17T03:51:11;4.60;;;2.80;;
48613;SDS011;34408;51.426;5.444;2023-02-17T03:53:41;4.15;;;2.40;;
48613;SDS011;34408;51.426;5.444;2023-02-17T03:56:10;3.78;;;2.80;;
48613;SDS011;34408;51.426;5.444;2023-02-17T03:58:38;4.18;;;2.70;;
48613;SDS011;34408;51.426;5.444;2023-02-17T04:01:07;4.13;;;2.25;;
48613;SDS011;34408;51.426;5.444;2023-02-17T04:03:37;3.88;;;2.35;;
48613;SDS011;34408;51.426;5.444;2023-02-17T04:06:06;4.00;;;2.60;;
48613;SDS011;34408;51.426;5.444;2023-02-17T04:08:34;4.53;;;2.38;;
48613;SDS011;34408;51.426;5.444;2023-02-17T04:11:04;3.60;;;2.42;;
48613;SDS011;34408;51.426;5.444;2023-02-17T04:13:34;5.40;;;2.60;;
48613;SDS011;34408;51.426;5.444;2023-02-17T04:16:03;3.58;;;2.28;;
48613;SDS011;34408;51.426;5.444;2023-02-17T04:18:32;3.83;;;2.38;;
48613;SDS011;34408;51.426;5.444;2023-02-17T04:21:00;4.15;;;2.50;;
48613;SDS011;34408;51.426;5.444;2023-02-17T04:23:28;6.78;;;2.95;;
48613;SDS011;34408;51.426;5.444;2023-02-17T04:25:56;2.80;;;2.15;;
48613;SDS011;34408;51.426;5.444;2023-02-17T04:28:25;6.30;;;2.20;;
48613;SDS011;34408;51.426;5.444;2023-02-17T04:30:53;2.80;;;1.90;;
48613;SDS011;34408;51.426;5.444;2023-02-17T04:33:21;2.90;;;2.10;;
48613;SDS011;34408;51.426;5.444;2023-02-17T04:35:48;4.75;;;2.38;;
48613;SDS011;34408;51.426;5.444;2023-02-17T04:38:16;2.97;;;2.45;;
48613;SDS011;34408;51.426;5.444;2023-02-17T04:40:44;7.20;;;2.33;;
48613;SDS011;34408;51.426;5.444;2023-02-17T04:43:12;4.10;;;2.30;;
48613;SDS011;34408;51.426;5.444;2023-02-17T04:45:41;3.10;;;2.13;;
48613;SDS011;34408;51.426;5.444;2023-02-17T04:48:08;6.20;;;2.72;;
48613;SDS011;34408;51.426;5.444;2023-02-17T04:50:36;2.58;;;1.92;;
48613;SDS011;34408;51.426;5.444;2023-02-17T04:53:04;5.35;;;2.63;;
48613;SDS011;34408;51.426;5.444;2023-02-17T04:55:32;3.55;;;1.90;;
48613;SDS011;34408;51.426;5.444;2023-02-17T04:57:59;4.50;;;2.20;;
48613;SDS011;34408;51.426;5.444;2023-02-17T05:00:27;4.57;;;2.15;;
48613;SDS011;34408;51.426;5.444;2023-02-17T05:02:57;4.05;;;2.03;;
48613;SDS011;34408;51.426;5.444;2023-02-17T05:05:24;4.80;;;2.20;;
48613;SDS011;34408;51.426;5.444;2023-02-17T05:07:52;6.50;;;2.53;;
48613;SDS011;34408;51.426;5.444;2023-02-17T05:10:20;6.10;;;2.35;;
48613;SDS011;34408;51.426;5.444;2023-02-17T05:12:49;5.30;;;2.45;;
48613;SDS011;34408;51.426;5.444;2023-02-17T05:15:17;4.53;;;2.58;;
48613;SDS011;34408;51.426;5.444;2023-02-17T05:17:45;5.10;;;3.22;;
48613;SDS011;34408;51.426;5.444;2023-02-17T05:20:14;5.15;;;3.00;;
48613;SDS011;34408;51.426;5.444;2023-02-17T05:22:42;5.90;;;2.70;;
48613;SDS011;34408;51.426;5.444;2023-02-17T05:25:10;5.97;;;2.88;;
48613;SDS011;34408;51.426;5.444;2023-02-17T05:27:37;5.03;;;2.47;;
48613;SDS011;34408;51.426;5.444;2023-02-17T05:30:05;5.50;;;2.42;;
48613;SDS011;34408;51.426;5.444;2023-02-17T05:32:34;4.75;;;2.65;;
48613;SDS011;34408;51.426;5.444;2023-02-17T05:35:01;5.35;;;2.78;;
48613;SDS011;34408;51.426;5.444;2023-02-17T05:37:31;6.25;;;2.97;;
48613;SDS011;34408;51.426;5.444;2023-02-17T05:39:58;4.72;;;3.30;;
48613;SDS011;34408;51.426;5.444;2023-02-17T05:42:26;5.43;;;3.40;;
48613;SDS011;34408;51.426;5.444;2023-02-17T05:44:54;5.78;;;3.58;;
48613;SDS011;34408;51.426;5.444;2023-02-17T05:47:22;5.55;;;3.90;;
48613;SDS011;34408;51.426;5.444;2023-02-17T05:49:52;6.50;;;4.22;;
48613;SDS011;34408;51.426;5.444;2023-02-17T05:52:20;8.30;;;4.25;;
48613;SDS011;34408;51.426;5.444;2023-02-17T05:54:49;7.03;;;4.88;;
48613;SDS011;34408;51.426;5.444;2023-02-17T05:57:17;6.75;;;4.90;;
48613;SDS011;34408;51.426;5.444;2023-02-17T05:59:45;7.72;;;4.70;;
48613;SDS011;34408;51.426;5.444;2023-02-17T06:02:12;7.63;;;4.75;;
48613;SDS011;34408;51.426;5.444;2023-02-17T06:04:40;6.88;;;5.50;;
48613;SDS011;34408;51.426;5.444;2023-02-17T06:07:08;9.10;;;5.70;;
48613;SDS011;34408;51.426;5.444;2023-02-17T06:09:36;7.53;;;5.28;;
48613;SDS011;34408;51.426;5.444;2023-02-17T06:12:05;9.13;;;4.88;;
48613;SDS011;34408;51.426;5.444;2023-02-17T06:14:33;6.13;;;4.75;;
48613;SDS011;34408;51.426;5.444;2023-02-17T06:17:01;7.82;;;4.80;;
48613;SDS011;34408;51.426;5.444;2023-02-17T06:19:29;11.48;;;4.90;;
48613;SDS011;34408;51.426;5.444;2023-02-17T06:21:57;8.30;;;5.03;;
48613;SDS011;34408;51.426;5.444;2023-02-17T06:24:25;8.35;;;5.18;;
48613;SDS011;34408;51.426;5.444;2023-02-17T06:26:52;9.27;;;4.97;;
48613;SDS011;34408;51.426;5.444;2023-02-17T06:29:21;8.13;;;5.63;;
48613;SDS011;34408;51.426;5.444;2023-02-17T06:31:49;7.18;;;5.05;;
48613;SDS011;34408;51.426;5.444;2023-02-17T06:34:17;8.38;;;5.88;;
48613;SDS011;34408;51.426;5.444;2023-02-17T06:36:45;7.18;;;5.25;;
48613;SDS011;34408;51.426;5.444;2023-02-17T06:39:13;8.63;;;5.50;;
48613;SDS011;34408;51.426;5.444;2023-02-17T06:41:40;8.95;;;6.05;;
48613;SDS011;34408;51.426;5.444;2023-02-17T06:44:08;6.90;;;5.18;;
48613;SDS011;34408;51.426;5.444;2023-02-17T06:46:37;9.77;;;6.28;;
48613;SDS011;34408;51.426;5.444;2023-02-17T06:49:05;8.88;;;5.95;;
48613;SDS011;34408;51.426;5.444;2023-02-17T06:51:33;9.23;;;5.97;;
48613;SDS011;34408;51.426;5.444;2023-02-17T06:54:01;8.35;;;5.82;;
48613;SDS011;34408;51.426;5.444;2023-02-17T06:56:28;8.55;;;6.07;;
48613;SDS011;34408;51.426;5.444;2023-02-17T06:58:56;12.05;;;7.60;;
48613;SDS011;34408;51.426;5.444;2023-02-17T07:01:25;8.68;;;6.22;;
48613;SDS011;34408;51.426;5.444;2023-02-17T07:03:54;9.80;;;5.63;;
48613;SDS011;34408;51.426;5.444;2023-02-17T07:06:23;10.07;;;6.45;;
48613;SDS011;34408;51.426;5.444;2023-02-17T07:08:51;11.00;;;6.63;;
48613;SDS011;34408;51.426;5.444;2023-02-17T07:11:20;10.25;;;6.63;;
48613;SDS011;34408;51.426;5.444;2023-02-17T07:13:47;13.15;;;7.00;;
48613;SDS011;34408;51.426;5.444;2023-02-17T07:16:15;11.10;;;6.72;;
48613;SDS011;34408;51.426;5.444;2023-02-17T07:18:43;9.70;;;6.32;;
48613;SDS011;34408;51.426;5.444;2023-02-17T07:21:12;12.57;;;7.35;;
48613;SDS011;34408;51.426;5.444;2023-02-17T07:23:40;15.15;;;6.80;;
48613;SDS011;34408;51.426;5.444;2023-02-17T07:26:08;12.50;;;8.32;;
48613;SDS011;34408;51.426;5.444;2023-02-17T07:28:37;11.07;;;7.07;;
48613;SDS011;34408;51.426;5.444;2023-02-17T07:31:07;9.77;;;5.90;;
48613;SDS011;34408;51.426;5.444;2023-02-17T07:33:36;8.35;;;5.43;;
48613;SDS011;34408;51.426;5.444;2023-02-17T07:36:05;12.75;;;6.47;;
48613;SDS011;34408;51.426;5.444;2023-02-17T07:38:35;8.95;;;5.63;;
48613;SDS011;34408;51.426;5.444;2023-02-17T07:41:04;11.40;;;6.68;;
48613;SDS011;34408;51.426;5.444;2023-02-17T07:43:33;10.20;;;5.65;;
48613;SDS011;34408;51.426;5.444;2023-02-17T07:46:01;10.23;;;5.38;;
48613;SDS011;34408;51.426;5.444;2023-02-17T07:48:29;11.88;;;7.50;;
48613;SDS011;34408;51.426;5.444;2023-02-17T07:51:02;9.38;;;6.28;;
48613;SDS011;34408;51.426;5.444;2023-02-17T07:53:31;9.75;;;6.60;;
48613;SDS011;34408;51.426;5.444;2023-02-17T07:56:02;8.05;;;5.55;;
48613;SDS011;34408;51.426;5.444;2023-02-17T07:58:31;12.05;;;6.70;;
48613;SDS011;34408;51.426;5.444;2023-02-17T08:01:03;10.32;;;5.82;;
48613;SDS011;34408;51.426;5.444;2023-02-17T08:03:32;8.93;;;5.60;;
48613;SDS011;34408;51.426;5.444;2023-02-17T08:06:00;8.32;;;5.60;;
48613;SDS011;34408;51.426;5.444;2023-02-17T08:08:27;8.55;;;5.40;;
48613;SDS011;34408;51.426;5.444;2023-02-17T08:11:16;8.48;;;5.47;;
48613;SDS011;34408;51.426;5.444;2023-02-17T08:13:58;8.95;;;5.32;;
48613;SDS011;34408;51.426;5.444;2023-02-17T08:16:26;7.78;;;4.78;;
48613;SDS011;34408;51.426;5.444;2023-02-17T08:18:54;8.48;;;5.05;;
48613;SDS011;34408;51.426;5.444;2023-02-17T08:21:23;7.05;;;5.07;;
48613;SDS011;34408;51.426;5.444;2023-02-17T08:23:52;6.65;;;4.65;;
48613;SDS011;34408;51.426;5.444;2023-02-17T08:26:21;7.82;;;4.93;;
48613;SDS011;34408;51.426;5.444;2023-02-17T08:28:49;6.95;;;4.85;;
48613;SDS011;34408;51.426;5.444;2023-02-17T08:31:18;8.00;;;5.00;;
48613;SDS011;34408;51.426;5.444;2023-02-17T08:33:49;9.45;;;6.00;;
48613;SDS011;34408;51.426;5.444;2023-02-17T08:36:17;8.80;;;5.10;;
48613;SDS011;34408;51.426;5.444;2023-02-17T08:38:48;10.25;;;5.25;;
48613;SDS011;34408;51.426;5.444;2023-02-17T08:41:17;9.57;;;5.63;;
48613;SDS011;34408;51.426;5.444;2023-02-17T08:43:48;6.82;;;4.93;;
48613;SDS011;34408;51.426;5.444;2023-02-17T08:46:17;9.18;;;6.05;;
48613;SDS011;34408;51.426;5.444;2023-02-17T08:48:45;9.05;;;5.22;;
48613;SDS011;34408;51.426;5.444;2023-02-17T08:51:14;8.82;;;5.28;;
48613;SDS011;34408;51.426;5.444;2023-02-17T08:53:43;6.13;;;4.45;;
48613;SDS011;34408;51.426;5.444;2023-02-17T08:56:12;7.80;;;5.10;;
48613;SDS011;34408;51.426;5.444;2023-02-17T08:58:39;8.95;;;5.22;;
48613;SDS011;34408;51.426;5.444;2023-02-17T09:01:09;13.10;;;5.00;;
48613;SDS011;34408;51.426;5.444;2023-02-17T09:03:38;6.40;;;4.32;;
48613;SDS011;34408;51.426;5.444;2023-02-17T09:06:07;8.13;;;4.75;;
48613;SDS011;34408;51.426;5.444;2023-02-17T09:08:35;6.75;;;4.82;;
48613;SDS011;34408;51.426;5.444;2023-02-17T09:11:04;7.45;;;4.63;;
48613;SDS011;34408;51.426;5.444;2023-02-17T09:13:35;6.45;;;4.07;;
48613;SDS011;34408;51.426;5.444;2023-02-17T09:16:03;10.02;;;4.72;;
48613;SDS011;34408;51.426;5.444;2023-02-17T09:18:33;6.65;;;4.50;;
48613;SDS011;34408;51.426;5.444;2023-02-17T09:21:04;7.65;;;4.15;;
48613;SDS011;34408;51.426;5.444;2023-02-17T09:23:32;9.00;;;4.13;;
48613;SDS011;34408;51.426;5.444;2023-02-17T09:26:00;6.25;;;4.18;;
48613;SDS011;34408;51.426;5.444;2023-02-17T09:28:31;6.78;;;4.15;;
48613;SDS011;34408;51.426;5.444;2023-02-17T09:31:06;7.88;;;4.00;;
48613;SDS011;34408;51.426;5.444;2023-02-17T09:33:37;9.18;;;4.25;;
48613;SDS011;34408;51.426;5.444;2023-02-17T09:36:05;6.82;;;4.20;;
48613;SDS011;34408;51.426;5.444;2023-02-17T09:38:36;7.05;;;3.90;;
48613;SDS011;34408;51.426;5.444;2023-02-17T09:41:07;6.05;;;3.80;;
48613;SDS011;34408;51.426;5.444;2023-02-17T09:43:42;6.13;;;4.13;;
48613;SDS011;34408;51.426;5.444;2023-02-17T09:46:11;6.18;;;4.22;;
48613;SDS011;34408;51.426;5.444;2023-02-17T09:48:44;5.60;;;4.00;;
48613;SDS011;34408;51.426;5.444;2023-02-17T09:51:16;7.85;;;3.75;;
48613;SDS011;34408;51.426;5.444;2023-02-17T09:53:51;8.68;;;3.83;;
48613;SDS011;34408;51.426;5.444;2023-02-17T09:56:27;6.22;;;3.60;;
48613;SDS011;34408;51.426;5.444;2023-02-17T09:59:01;5.18;;;3.38;;
48613;SDS011;34408;51.426;5.444;2023-02-17T10:01:33;6.65;;;3.65;;
48613;SDS011;34408;51.426;5.444;2023-02-17T10:04:04;6.22;;;3.90;;
48613;SDS011;34408;51.426;5.444;2023-02-17T10:06:37;5.28;;;3.33;;
48613;SDS011;34408;51.426;5.444;2023-02-17T10:09:08;5.53;;;3.22;;
48613;SDS011;34408;51.426;5.444;2023-02-17T10:11:43;6.90;;;3.63;;
48613;SDS011;34408;51.426;5.444;2023-02-17T10:14:18;5.85;;;3.55;;
48613;SDS011;34408;51.426;5.444;2023-02-17T10:16:52;5.32;;;4.05;;
48613;SDS011;34408;51.426;5.444;2023-02-17T10:19:25;4.68;;;3.10;;
48613;SDS011;34408;51.426;5.444;2023-02-17T10:21:57;4.28;;;2.92;;
48613;SDS011;34408;51.426;5.444;2023-02-17T10:24:32;5.40;;;3.15;;
48613;SDS011;34408;51.426;5.444;2023-02-17T10:27:03;4.18;;;3.08;;
48613;SDS011;34408;51.426;5.444;2023-02-17T10:29:44;5.72;;;3.17;;
48613;SDS011;34408;51.426;5.444;2023-02-17T10:32:22;3.90;;;2.40;;
48613;SDS011;34408;51.426;5.444;2023-02-17T10:34:57;5.43;;;3.50;;
48613;SDS011;34408;51.426;5.444;2023-02-17T10:37:39;3.72;;;2.75;;
48613;SDS011;34408;51.426;5.444;2023-02-17T10:40:14;3.90;;;2.70;;
48613;SDS011;34408;51.426;5.444;2023-02-17T10:42:46;7.03;;;2.75;;
48613;SDS011;34408;51.426;5.444;2023-02-17T10:45:18;4.32;;;2.65;;
48613;SDS011;34408;51.426;5.444;2023-02-17T10:50:25;3.42;;;2.55;;
48613;SDS011;34408;51.426;5.444;2023-02-17T10:52:53;3.22;;;2.08;;
48613;SDS011;34408;51.426;5.444;2023-02-17T10:55:24;3.20;;;2.25;;
48613;SDS011;34408;51.426;5.444;2023-02-17T10:58:02;3.25;;;2.03;;
48613;SDS011;34408;51.426;5.444;2023-02-17T11:00:33;3.15;;;2.20;;
48613;SDS011;34408;51.426;5.444;2023-02-17T11:03:00;3.38;;;1.90;;
48613;SDS011;34408;51.426;5.444;2023-02-17T11:05:30;2.42;;;1.70;;
48613;SDS011;34408;51.426;5.444;2023-02-17T11:08:01;3.50;;;2.20;;
48613;SDS011;34408;51.426;5.444;2023-02-17T11:10:33;2.08;;;1.38;;
48613;SDS011;34408;51.426;5.444;2023-02-17T11:13:02;2.40;;;2.08;;
48613;SDS011;34408;51.426;5.444;2023-02-17T11:15:45;2.95;;;1.60;;
48613;SDS011;34408;51.426;5.444;2023-02-17T11:18:17;2.83;;;1.90;;
48613;SDS011;34408;51.426;5.444;2023-02-17T11:20:49;2.65;;;1.40;;
48613;SDS011;34408;51.426;5.444;2023-02-17T11:23:26;2.45;;;1.75;;
48613;SDS011;34408;51.426;5.444;2023-02-17T11:26:08;2.97;;;1.80;;
48613;SDS011;34408;51.426;5.444;2023-02-17T11:28:36;4.93;;;1.50;;
48613;SDS011;34408;51.426;5.444;2023-02-17T11:31:04;3.50;;;1.73;;
48613;SDS011;34408;51.426;5.444;2023-02-17T11:33:33;2.00;;;1.50;;
48613;SDS011;34408;51.426;5.444;2023-02-17T11:36:04;2.55;;;1.52;;
48613;SDS011;34408;51.426;5.444;2023-02-17T11:38:40;1.42;;;1.20;;
48613;SDS011;34408;51.426;5.444;2023-02-17T11:41:10;2.85;;;1.38;;
48613;SDS011;34408;51.426;5.444;2023-02-17T11:43:38;3.88;;;1.30;;
48613;SDS011;34408;51.426;5.444;2023-02-17T11:46:20;4.75;;;1.30;;
48613;SDS011;34408;51.426;5.444;2023-02-17T11:49:06;3.67;;;1.65;;
48613;SDS011;34408;51.426;5.444;2023-02-17T11:52:01;2.13;;;1.42;;
48613;SDS011;34408;51.426;5.444;2023-02-17T11:54:42;2.10;;;1.42;;
48613;SDS011;34408;51.426;5.444;2023-02-17T11:57:23;1.42;;;1.27;;
48613;SDS011;34408;51.426;5.444;2023-02-17T12:00:09;1.40;;;1.20;;
48613;SDS011;34408;51.426;5.444;2023-02-17T12:02:52;6.05;;;1.40;;
48613;SDS011;34408;51.426;5.444;2023-02-17T12:05:43;4.30;;;1.73;;
48613;SDS011;34408;51.426;5.444;2023-02-17T12:08:25;3.13;;;1.40;;
48613;SDS011;34408;51.426;5.444;2023-02-17T12:11:07;6.63;;;1.55;;
48613;SDS011;34408;51.426;5.444;2023-02-17T12:13:45;2.22;;;1.40;;
48613;SDS011;34408;51.426;5.444;2023-02-17T12:16:38;2.60;;;1.20;;
48613;SDS011;34408;51.426;5.444;2023-02-17T12:22:16;3.15;;;1.55;;
48613;SDS011;34408;51.426;5.444;2023-02-17T12:25:01;2.25;;;1.33;;
48613;SDS011;34408;51.426;5.444;2023-02-17T12:27:43;2.55;;;1.42;;
48613;SDS011;34408;51.426;5.444;2023-02-17T12:30:22;2.63;;;1.65;;
48613;SDS011;34408;51.426;5.444;2023-02-17T12:33:10;3.20;;;1.95;;
48613;SDS011;34408;51.426;5.444;2023-02-17T12:35:51;2.50;;;1.55;;
48613;SDS011;34408;51.426;5.444;2023-02-17T12:38:23;1.75;;;1.40;;
48613;SDS011;34408;51.426;5.444;2023-02-17T12:40:59;1.40;;;1.30;;
48613;SDS011;34408;51.426;5.444;2023-02-17T12:43:35;7.25;;;1.80;;
48613;SDS011;34408;51.426;5.444;2023-02-17T12:46:08;4.25;;;2.05;;
48613;SDS011;34408;51.426;5.444;2023-02-17T12:48:39;2.72;;;1.77;;
48613;SDS011;34408;51.426;5.444;2023-02-17T12:51:14;3.75;;;1.70;;
48613;SDS011;34408;51.426;5.444;2023-02-17T12:53:48;3.55;;;2.08;;
48613;SDS011;34408;51.426;5.444;2023-02-17T12:56:31;3.05;;;1.85;;
48613;SDS011;34408;51.426;5.444;2023-02-17T12:59:09;5.53;;;1.95;;
48613;SDS011;34408;51.426;5.444;2023-02-17T13:01:43;3.45;;;2.28;;
48613;SDS011;34408;51.426;5.444;2023-02-17T13:04:19;1.90;;;1.70;;
48613;SDS011;34408;51.426;5.444;2023-02-17T13:06:53;2.78;;;1.75;;
48613;SDS011;34408;51.426;5.444;2023-02-17T13:09:29;2.35;;;1.60;;
48613;SDS011;34408;51.426;5.444;2023-02-17T13:12:09;5.03;;;2.22;;
48613;SDS011;34408;51.426;5.444;2023-02-17T13:14:53;6.40;;;2.55;;
48613;SDS011;34408;51.426;5.444;2023-02-17T13:17:23;3.45;;;1.77;;
48613;SDS011;34408;51.426;5.444;2023-02-17T13:19:59;6.53;;;2.10;;
48613;SDS011;34408;51.426;5.444;2023-02-17T13:22:31;4.63;;;2.22;;
48613;SDS011;34408;51.426;5.444;2023-02-17T13:24:58;9.35;;;2.67;;
48613;SDS011;34408;51.426;5.444;2023-02-17T13:27:32;4.15;;;2.75;;
48613;SDS011;34408;51.426;5.444;2023-02-17T13:30:02;5.65;;;2.38;;
48613;SDS011;34408;51.426;5.444;2023-02-17T13:32:35;2.95;;;2.03;;
48613;SDS011;34408;51.426;5.444;2023-02-17T13:35:04;4.93;;;2.80;;
48613;SDS011;34408;51.426;5.444;2023-02-17T13:37:38;6.65;;;2.53;;
48613;SDS011;34408;51.426;5.444;2023-02-17T13:43:12;2.30;;;1.85;;
48613;SDS011;34408;51.426;5.444;2023-02-17T13:45:43;6.70;;;2.88;;
48613;SDS011;34408;51.426;5.444;2023-02-17T13:48:14;5.30;;;3.08;;
48613;SDS011;34408;51.426;5.444;2023-02-17T13:53:20;4.70;;;2.85;;
48613;SDS011;34408;51.426;5.444;2023-02-17T13:55:51;5.22;;;3.28;;
48613;SDS011;34408;51.426;5.444;2023-02-17T13:58:23;5.03;;;3.17;;
48613;SDS011;34408;51.426;5.444;2023-02-17T14:00:56;5.53;;;2.95;;
48613;SDS011;34408;51.426;5.444;2023-02-17T14:03:26;3.80;;;2.70;;
48613;SDS011;34408;51.426;5.444;2023-02-17T14:05:56;3.22;;;2.60;;
48613;SDS011;34408;51.426;5.444;2023-02-17T14:08:27;7.43;;;3.72;;
48613;SDS011;34408;51.426;5.444;2023-02-17T14:11:04;8.68;;;4.13;;
48613;SDS011;34408;51.426;5.444;2023-02-17T14:13:37;10.23;;;3.40;;
48613;SDS011;34408;51.426;5.444;2023-02-17T14:16:06;4.68;;;3.40;;
48613;SDS011;34408;51.426;5.444;2023-02-17T14:18:59;4.97;;;3.72;;
48613;SDS011;34408;51.426;5.444;2023-02-17T14:21:30;8.25;;;4.13;;
48613;SDS011;34408;51.426;5.444;2023-02-17T14:23:58;5.43;;;3.67;;
48613;SDS011;34408;51.426;5.444;2023-02-17T14:26:29;4.13;;;3.50;;
48613;SDS011;34408;51.426;5.444;2023-02-17T14:29:00;5.78;;;3.40;;
48613;SDS011;34408;51.426;5.444;2023-02-17T14:31:35;5.07;;;4.55;;
48613;SDS011;34408;51.426;5.444;2023-02-17T14:34:04;7.47;;;4.57;;
48613;SDS011;34408;51.426;5.444;2023-02-17T14:36:33;5.78;;;4.78;;
48613;SDS011;34408;51.426;5.444;2023-02-17T14:39:03;6.15;;;4.45;;
48613;SDS011;34408;51.426;5.444;2023-02-17T14:41:33;4.32;;;3.78;;
48613;SDS011;34408;51.426;5.444;2023-02-17T14:44:02;7.65;;;4.78;;
48613;SDS011;34408;51.426;5.444;2023-02-17T14:46:31;5.25;;;4.30;;
48613;SDS011;34408;51.426;5.444;2023-02-17T14:48:59;4.88;;;4.07;;
48613;SDS011;34408;51.426;5.444;2023-02-17T14:51:30;5.00;;;4.18;;
48613;SDS011;34408;51.426;5.444;2023-02-17T14:54:00;6.40;;;5.38;;
48613;SDS011;34408;51.426;5.444;2023-02-17T14:56:29;8.30;;;4.65;;
48613;SDS011;34408;51.426;5.444;2023-02-17T14:59:00;8.15;;;5.20;;
48613;SDS011;34408;51.426;5.444;2023-02-17T15:01:29;8.65;;;5.32;;
48613;SDS011;34408;51.426;5.444;2023-02-17T15:03:57;6.05;;;5.10;;
48613;SDS011;34408;51.426;5.444;2023-02-17T15:06:25;6.85;;;5.65;;
48613;SDS011;34408;51.426;5.444;2023-02-17T15:08:58;8.82;;;5.72;;
48613;SDS011;34408;51.426;5.444;2023-02-17T15:11:28;7.03;;;5.40;;
48613;SDS011;34408;51.426;5.444;2023-02-17T15:14:00;7.20;;;6.00;;
48613;SDS011;34408;51.426;5.444;2023-02-17T15:16:30;9.80;;;5.65;;
48613;SDS011;34408;51.426;5.444;2023-02-17T15:18:58;7.75;;;5.65;;
48613;SDS011;34408;51.426;5.444;2023-02-17T15:21:26;10.05;;;6.38;;
48613;SDS011;34408;51.426;5.444;2023-02-17T15:23:56;8.30;;;6.32;;
48613;SDS011;34408;51.426;5.444;2023-02-17T15:26:25;7.70;;;6.20;;
48613;SDS011;34408;51.426;5.444;2023-02-17T15:28:53;8.90;;;6.57;;
48613;SDS011;34408;51.426;5.444;2023-02-17T15:31:22;8.82;;;6.53;;